Time;durP1;ratioP1;P1;durP2;ratioP2;P2;SDS_P1;SDS_P2;PMS_P1;PMS_P2;Temp;Humidity;BMP_temperature;BMP_pressure;BME280_temperature;BME280_humidity;BME280_pressure;Samples;Min_cycle;Max_cycle;Signal;HPM_P1;HPM_P2
2023/03/22 00:02:21;;;;;;;32.17;20.15;;;;;;;;;;4863999;29;20040;-93
2023/03/22 00:04:47;;;;;;;39.45;22.13;;;;;;;;;;4863527;29;20037;-93
2023/03/22 00:07:17;;;;;;;35.25;20.52;;;;;;;;;;4863911;29;20033;-94
2023/03/22 00:09:46;;;;;;;30.50;16.60;;;;;;;;;;4863887;29;20025;-93
2023/03/22 00:12:15;;;;;;;27.70;15.95;;;;;;;;;;4863934;29;20041;-93
2023/03/22 00:14:48;;;;;;;33.67;19.30;;;;;;;;;;4863375;29;20028;-93
2023/03/22 00:17:17;;;;;;;36.15;20.02;;;;;;;;;;4863994;29;20475;-92
2023/03/22 00:19:43;;;;;;;34.63;21.48;;;;;;;;;;4863720;29;20033;-92
2023/03/22 00:22:13;;;;;;;31.15;19.83;;;;;;;;;;4871679;29;20085;-92
2023/03/22 00:24:39;;;;;;;47.67;28.83;;;;;;;;;;4863959;29;20182;-92
2023/03/22 00:27:05;;;;;;;58.13;36.22;;;;;;;;;;4863505;29;20025;-93
2023/03/22 00:29:37;;;;;;;54.05;33.13;;;;;;;;;;4863816;29;20033;-93
2023/03/22 00:32:04;;;;;;;40.10;24.85;;;;;;;;;;4863529;29;20033;-92
2023/03/22 00:34:34;;;;;;;31.08;19.48;;;;;;;;;;4863242;29;20400;-93
2023/03/22 00:37:00;;;;;;;32.88;19.70;;;;;;;;;;4863658;29;20044;-94
2023/03/22 00:39:29;;;;;;;27.95;17.23;;;;;;;;;;4863549;29;20112;-94
2023/03/22 00:41:55;;;;;;;24.52;16.27;;;;;;;;;;4862837;29;20041;-93
2023/03/22 00:44:24;;;;;;;28.52;16.65;;;;;;;;;;4863343;29;20025;-93
2023/03/22 00:46:50;;;;;;;24.70;15.80;;;;;;;;;;4863133;29;20467;-93
2023/03/22 00:49:24;;;;;;;21.65;14.32;;;;;;;;;;4863228;29;20139;-93
2023/03/22 00:51:50;;;;;;;21.52;13.27;;;;;;;;;;4877116;29;20060;-91
2023/03/22 00:54:16;;;;;;;20.00;11.90;;;;;;;;;;4872216;29;20124;-94
2023/03/22 00:56:46;;;;;;;22.50;12.82;;;;;;;;;;4863035;29;20033;-93
2023/03/22 00:59:18;;;;;;;17.83;13.00;;;;;;;;;;4862779;29;20778;-94
2023/03/22 01:01:47;;;;;;;21.00;13.05;;;;;;;;;;4862750;29;20063;-93
2023/03/22 01:04:16;;;;;;;22.83;12.32;;;;;;;;;;4862860;29;20032;-93
2023/03/22 01:06:43;;;;;;;22.35;14.18;;;;;;;;;;4862814;29;20041;-94
2023/03/22 01:09:13;;;;;;;20.85;13.27;;;;;;;;;;4862664;29;20025;-93
2023/03/22 01:11:40;;;;;;;18.13;11.95;;;;;;;;;;4862480;29;20128;-93
2023/03/22 01:14:08;;;;;;;20.70;11.55;;;;;;;;;;4862731;29;20036;-93
2023/03/22 01:16:37;;;;;;;16.05;10.93;;;;;;;;;;4862683;29;20037;-94
2023/03/22 01:19:06;;;;;;;17.95;11.43;;;;;;;;;;4862835;29;20436;-93
2023/03/22 01:21:35;;;;;;;17.80;11.18;;;;;;;;;;4862221;29;20143;-93
2023/03/22 01:24:01;;;;;;;18.42;11.48;;;;;;;;;;4862487;29;20029;-93
2023/03/22 01:26:31;;;;;;;18.95;11.63;;;;;;;;;;4862381;29;20029;-93
2023/03/22 01:29:00;;;;;;;16.38;10.65;;;;;;;;;;4862637;29;20089;-93
2023/03/22 01:31:29;;;;;;;16.58;11.23;;;;;;;;;;4862860;29;20143;-93
2023/03/22 01:33:58;;;;;;;20.50;10.80;;;;;;;;;;4862408;29;20065;-91
2023/03/22 01:36:28;;;;;;;15.02;10.02;;;;;;;;;;4862294;29;20033;-92
2023/03/22 01:38:58;;;;;;;16.90;11.30;;;;;;;;;;4862229;29;20041;-94
2023/03/22 01:41:24;;;;;;;17.10;11.25;;;;;;;;;;4862930;29;20040;-93
2023/03/22 01:44:12;;;;;;;18.30;11.68;;;;;;;;;;4862044;29;20032;-93
2023/03/22 01:46:42;;;;;;;17.67;11.55;;;;;;;;;;4861971;29;20029;-93
2023/03/22 01:49:10;;;;;;;17.83;10.88;;;;;;;;;;4863234;29;20029;-92
2023/03/22 01:56:31;;;;;;;16.67;10.75;;;;;;;;;;4879961;29;20503;-92
2023/03/22 01:58:58;;;;;;;17.17;11.25;;;;;;;;;;4862337;29;20036;-93
2023/03/22 02:01:26;;;;;;;17.10;11.45;;;;;;;;;;4861365;29;20041;-92
2023/03/22 02:04:02;;;;;;;16.83;10.82;;;;;;;;;;4862263;29;20057;-93
2023/03/22 02:06:31;;;;;;;19.02;12.23;;;;;;;;;;4885014;29;20036;-91
2023/03/22 02:09:03;;;;;;;16.15;11.27;;;;;;;;;;4861806;29;20037;-93
2023/03/22 02:11:43;;;;;;;19.92;11.93;;;;;;;;;;4862182;29;20120;-93
2023/03/22 02:14:32;;;;;;;21.73;12.30;;;;;;;;;;4864183;29;20073;-92
2023/03/22 02:17:19;;;;;;;18.30;12.18;;;;;;;;;;4788816;29;20046;-92
2023/03/22 02:19:57;;;;;;;17.38;12.15;;;;;;;;;;4862597;29;20075;-92
2023/03/22 02:22:48;;;;;;;17.08;12.43;;;;;;;;;;4861337;29;20159;-93
2023/03/22 02:25:24;;;;;;;19.25;12.90;;;;;;;;;;4861704;29;20037;-94
2023/03/22 02:31:15;;;;;;;30.83;17.63;;;;;;;;;;5466242;23;20091;-92
2023/03/22 02:33:47;;;;;;;27.13;17.45;;;;;;;;;;4880114;29;20116;-93
2023/03/22 02:36:37;;;;;;;26.15;16.45;;;;;;;;;;4880046;29;20032;-92
2023/03/22 02:39:16;;;;;;;23.75;15.68;;;;;;;;;;4879994;29;20102;-93
2023/03/22 02:41:57;;;;;;;22.33;14.20;;;;;;;;;;4880290;29;20040;-93
2023/03/22 02:44:30;;;;;;;24.95;14.50;;;;;;;;;;4880048;29;20028;-93
2023/03/22 02:47:02;;;;;;;24.80;14.70;;;;;;;;;;4879902;29;20037;-93
2023/03/22 02:49:44;;;;;;;27.05;14.25;;;;;;;;;;4880209;29;20115;-93
2023/03/22 02:52:20;;;;;;;22.67;13.73;;;;;;;;;;4880567;29;20127;-93
2023/03/22 02:55:12;;;;;;;20.40;13.50;;;;;;;;;;4880403;29;20040;-92
2023/03/22 02:57:45;;;;;;;19.30;13.10;;;;;;;;;;4873137;29;20557;-92
2023/03/22 03:00:12;;;;;;;19.98;13.15;;;;;;;;;;4879910;29;20489;-93
2023/03/22 03:02:47;;;;;;;20.85;13.57;;;;;;;;;;4879287;29;20156;-92
2023/03/22 03:05:17;;;;;;;18.70;12.85;;;;;;;;;;4880198;29;20029;-93
2023/03/22 03:07:49;;;;;;;20.23;13.27;;;;;;;;;;4879711;29;20060;-92
2023/03/22 03:10:20;;;;;;;20.73;13.20;;;;;;;;;;4879682;29;20494;-93
2023/03/22 03:12:46;;;;;;;19.33;12.32;;;;;;;;;;4879876;29;20033;-93
2023/03/22 03:18:27;;;;;;;24.02;13.00;;;;;;;;;;4900097;29;20037;-90
2023/03/22 03:21:01;;;;;;;24.85;13.90;;;;;;;;;;4882782;29;20439;-92
2023/03/22 03:23:48;;;;;;;24.88;14.70;;;;;;;;;;4883457;29;20032;-93
2023/03/22 03:26:21;;;;;;;22.88;14.55;;;;;;;;;;4883361;29;20036;-93
2023/03/22 03:28:51;;;;;;;20.05;12.88;;;;;;;;;;4883254;29;20049;-92
2023/03/22 03:31:26;;;;;;;19.85;13.27;;;;;;;;;;4871918;29;20049;-93
2023/03/22 03:34:07;;;;;;;21.27;13.52;;;;;;;;;;4864341;29;20120;-93
2023/03/22 03:36:40;;;;;;;24.83;14.73;;;;;;;;;;4864106;29;20033;-92
2023/03/22 03:39:12;;;;;;;30.13;17.33;;;;;;;;;;4864817;29;20025;-92
2023/03/22 03:41:41;;;;;;;31.77;19.45;;;;;;;;;;4864162;29;20520;-93
2023/03/22 03:44:11;;;;;;;32.20;18.67;;;;;;;;;;4870174;29;20025;-92
2023/03/22 03:46:41;;;;;;;31.58;19.00;;;;;;;;;;4879991;29;20132;-91
2023/03/22 03:49:08;;;;;;;31.48;18.70;;;;;;;;;;4868820;29;20033;-91
2023/03/22 03:51:54;;;;;;;31.73;19.90;;;;;;;;;;4868845;29;20494;-93
2023/03/22 03:54:24;;;;;;;32.65;19.42;;;;;;;;;;4864032;29;20040;-93
2023/03/22 03:56:54;;;;;;;33.78;19.70;;;;;;;;;;4864045;29;20495;-93
2023/03/22 03:59:20;;;;;;;28.67;18.25;;;;;;;;;;4863696;29;20037;-93
2023/03/22 04:01:52;;;;;;;30.50;18.75;;;;;;;;;;4863870;29;20068;-92
2023/03/22 04:04:33;;;;;;;25.17;16.38;;;;;;;;;;4874551;29;20025;-92
2023/03/22 04:07:03;;;;;;;19.92;13.40;;;;;;;;;;4876137;29;20041;-94
2023/03/22 04:09:31;;;;;;;19.65;11.93;;;;;;;;;;4863776;29;20060;-93
2023/03/22 04:12:00;;;;;;;18.50;10.60;;;;;;;;;;4863763;29;20021;-92
2023/03/22 04:14:27;;;;;;;15.77;8.93;;;;;;;;;;4863711;29;20040;-93
2023/03/22 04:16:56;;;;;;;15.63;9.13;;;;;;;;;;4863593;29;20024;-93
2023/03/22 04:19:22;;;;;;;17.52;10.13;;;;;;;;;;4863926;29;20025;-93
2023/03/22 04:21:51;;;;;;;17.38;9.73;;;;;;;;;;4863243;29;20041;-92
2023/03/22 04:24:18;;;;;;;16.80;9.30;;;;;;;;;;4863190;29;20029;-92
2023/03/22 04:26:44;;;;;;;16.35;9.55;;;;;;;;;;4863664;29;20021;-92
2023/03/22 04:29:13;;;;;;;18.00;11.40;;;;;;;;;;4863902;29;20029;-93
2023/03/22 04:31:42;;;;;;;16.20;10.00;;;;;;;;;;4873544;29;20087;-94
2023/03/22 04:34:12;;;;;;;18.08;11.35;;;;;;;;;;4878965;29;20550;-93
2023/03/22 04:36:41;;;;;;;26.00;12.82;;;;;;;;;;4879036;29;20029;-92
2023/03/22 04:39:14;;;;;;;21.15;12.63;;;;;;;;;;4878852;29;20390;-92
2023/03/22 04:41:40;;;;;;;;;;;;;;;;;;4879176;29;20037;-91
2023/03/22 04:44:10;;;;;;;23.40;13.57;;;;;;;;;;4879526;29;19907;-91
2023/03/22 04:46:36;;;;;;;26.13;14.48;;;;;;;;;;4880390;29;20033;-92
2023/03/22 04:49:03;;;;;;;23.00;14.68;;;;;;;;;;4879870;29;20041;-91
2023/03/22 04:51:33;;;;;;;25.95;15.35;;;;;;;;;;4880448;29;20077;-91
2023/03/22 04:53:59;;;;;;;24.27;14.70;;;;;;;;;;4880722;29;20088;-92
2023/03/22 04:56:25;;;;;;;26.23;15.05;;;;;;;;;;4879521;29;20029;-91
2023/03/22 04:58:57;;;;;;;25.20;15.85;;;;;;;;;;4879410;29;20029;-92
2023/03/22 05:01:24;;;;;;;21.52;15.02;;;;;;;;;;4879577;29;20124;-91
2023/03/22 05:03:50;;;;;;;21.45;13.50;;;;;;;;;;4880073;29;20029;-93
2023/03/22 05:09:39;;;;;;;22.67;11.73;;;;;;;;;;5001560;23;20056;-93
2023/03/22 05:12:09;;;;;;;17.40;10.33;;;;;;;;;;4864652;29;20025;-93
2023/03/22 05:14:38;;;;;;;18.77;10.90;;;;;;;;;;4864954;29;20032;-92
2023/03/22 05:17:04;;;;;;;16.27;11.60;;;;;;;;;;4864869;29;20025;-92
2023/03/22 05:19:31;;;;;;;19.02;10.77;;;;;;;;;;4864755;29;20033;-94
2023/03/22 05:22:00;;;;;;;21.55;11.30;;;;;;;;;;4864213;29;20501;-92
2023/03/22 05:24:30;;;;;;;17.30;11.27;;;;;;;;;;4864735;29;20025;-93
2023/03/22 05:26:59;;;;;;;16.67;11.40;;;;;;;;;;4864606;29;20043;-91
2023/03/22 05:29:37;;;;;;;20.75;10.77;;;;;;;;;;4864405;29;20025;-93
2023/03/22 05:32:04;;;;;;;17.55;10.80;;;;;;;;;;4864527;29;20040;-94
2023/03/22 05:34:34;;;;;;;19.38;10.88;;;;;;;;;;4868215;29;20052;-89
2023/03/22 05:37:04;;;;;;;23.02;11.32;;;;;;;;;;4868598;29;20092;-91
2023/03/22 05:39:33;;;;;;;20.55;11.48;;;;;;;;;;4864214;29;20033;-92
2023/03/22 05:41:59;;;;;;;16.63;10.57;;;;;;;;;;4864116;29;20041;-93
2023/03/22 05:44:31;;;;;;;18.67;10.13;;;;;;;;;;4863770;29;20035;-91
2023/03/22 05:46:58;;;;;;;17.37;10.80;;;;;;;;;;4862700;29;20084;-92
2023/03/22 05:52:28;;;;;;;18.20;10.15;;;;;;;;;;4880211;29;20044;-93
2023/03/22 05:54:57;;;;;;;29.60;17.13;;;;;;;;;;4862085;29;20035;-91
2023/03/22 05:57:29;;;;;;;24.02;15.02;;;;;;;;;;4862187;29;20029;-93
2023/03/22 06:00:02;;;;;;;31.73;14.77;;;;;;;;;;4862364;29;20037;-91
2023/03/22 06:02:31;;;;;;;23.77;14.52;;;;;;;;;;4862098;29;20044;-91
2023/03/22 06:08:04;;;;;;;32.73;14.63;;;;;;;;;;4895408;29;20399;-92
2023/03/22 06:10:33;;;;;;;44.38;21.50;;;;;;;;;;4853017;29;20294;-93
2023/03/22 06:13:02;;;;;;;34.42;17.67;;;;;;;;;;4843629;29;20120;-92
2023/03/22 06:15:29;;;;;;;28.70;16.63;;;;;;;;;;4843248;29;20033;-93
2023/03/22 06:17:58;;;;;;;21.90;15.07;;;;;;;;;;4845462;29;20368;-94
2023/03/22 06:20:27;;;;;;;21.85;14.63;;;;;;;;;;4845456;29;20108;-94
2023/03/22 06:22:56;;;;;;;22.35;15.05;;;;;;;;;;4844833;29;20048;-92
2023/03/22 06:25:25;;;;;;;24.60;17.05;;;;;;;;;;4843538;29;20045;-93
2023/03/22 06:30:55;;;;;;;23.08;15.73;;;;;;;;;;4984735;23;20092;-92
2023/03/22 06:33:24;;;;;;;22.17;15.52;;;;;;;;;;4863355;29;20041;-93
2023/03/22 06:35:54;;;;;;;22.05;15.32;;;;;;;;;;4863643;29;20037;-94
2023/03/22 06:38:20;;;;;;;24.73;15.70;;;;;;;;;;4863916;29;20036;-93
2023/03/22 06:40:46;;;;;;;23.60;15.60;;;;;;;;;;4863832;29;20044;-93
2023/03/22 06:43:12;;;;;;;22.10;15.32;;;;;;;;;;4862186;29;20093;-93
2023/03/22 06:45:39;;;;;;;21.95;16.15;;;;;;;;;;4862913;29;20035;-93
2023/03/22 06:48:05;;;;;;;28.80;18.20;;;;;;;;;;4866386;29;20035;-93
2023/03/22 06:50:36;;;;;;;22.13;15.35;;;;;;;;;;4867648;29;20037;-94
2023/03/22 06:53:03;;;;;;;22.33;16.98;;;;;;;;;;4867708;29;20029;-93
2023/03/22 06:55:33;;;;;;;24.85;16.75;;;;;;;;;;4867592;29;20040;-94
2023/03/22 06:58:00;;;;;;;20.15;16.33;;;;;;;;;;4883043;29;20463;-93
2023/03/22 07:00:26;;;;;;;21.70;16.42;;;;;;;;;;4869167;29;20036;-95
2023/03/22 07:02:52;;;;;;;20.83;15.45;;;;;;;;;;4868104;29;20047;-93
2023/03/22 07:05:18;;;;;;;20.25;15.85;;;;;;;;;;4868509;29;20031;-95
2023/03/22 07:07:45;;;;;;;20.08;16.33;;;;;;;;;;4869955;29;20029;-95
2023/03/22 07:10:11;;;;;;;22.92;16.95;;;;;;;;;;4867597;29;20029;-95
2023/03/22 07:12:37;;;;;;;21.80;16.42;;;;;;;;;;4867301;29;20037;-95
2023/03/22 07:15:04;;;;;;;21.38;16.10;;;;;;;;;;4867650;29;20112;-95
2023/03/22 07:17:31;;;;;;;21.35;16.42;;;;;;;;;;4884927;29;20033;-94
2023/03/22 07:19:57;;;;;;;21.23;16.77;;;;;;;;;;4879093;29;20054;-95
2023/03/22 07:22:23;;;;;;;22.98;16.48;;;;;;;;;;4869029;29;20037;-95
2023/03/22 07:24:50;;;;;;;20.40;15.73;;;;;;;;;;4868346;29;20375;-95
2023/03/22 07:27:16;;;;;;;21.30;16.15;;;;;;;;;;4868211;29;20092;-95
2023/03/22 07:29:43;;;;;;;21.30;16.05;;;;;;;;;;4867795;29;20029;-94
2023/03/22 07:32:10;;;;;;;21.42;15.77;;;;;;;;;;4854395;29;20403;-95
2023/03/22 07:34:42;;;;;;;20.38;16.63;;;;;;;;;;4854593;29;20022;-96
2023/03/22 07:37:11;;;;;;;21.33;15.85;;;;;;;;;;4851132;29;20034;-96
2023/03/22 07:39:37;;;;;;;22.67;16.55;;;;;;;;;;4854371;29;20029;-94
2023/03/22 07:42:14;;;;;;;22.33;15.63;;;;;;;;;;4853086;29;20109;-96
2023/03/22 07:44:40;;;;;;;24.80;15.60;;;;;;;;;;4832258;29;20066;-94
2023/03/22 07:50:12;;;;;;;18.58;14.57;;;;;;;;;;5255685;23;20755;-94
2023/03/22 07:55:41;;;;;;;20.58;15.40;;;;;;;;;;4901189;23;20055;-94
2023/03/22 07:58:11;;;;;;;16.83;15.02;;;;;;;;;;4885840;29;20032;-95
2023/03/22 08:00:37;;;;;;;17.23;15.32;;;;;;;;;;4885135;29;20036;-95
2023/03/22 08:03:03;;;;;;;18.48;15.52;;;;;;;;;;4905606;29;20033;-95
2023/03/22 08:05:29;;;;;;;17.98;15.05;;;;;;;;;;4885988;29;20032;-91
2023/03/22 08:07:55;;;;;;;18.23;14.23;;;;;;;;;;4881965;29;20032;-93
2023/03/22 08:10:22;;;;;;;17.90;15.55;;;;;;;;;;4882234;29;20051;-94
2023/03/22 08:12:48;;;;;;;19.98;15.50;;;;;;;;;;4898957;29;20035;-94
2023/03/22 08:15:14;;;;;;;18.27;13.93;;;;;;;;;;4885200;29;20037;-94
2023/03/22 08:17:41;;;;;;;17.83;15.20;;;;;;;;;;4884700;29;20024;-92
2023/03/22 08:20:08;;;;;;;17.23;15.32;;;;;;;;;;4887040;29;20031;-93
2023/03/22 08:22:37;;;;;;;19.80;16.70;;;;;;;;;;4884556;29;20045;-92
2023/03/22 08:25:04;;;;;;;17.30;15.45;;;;;;;;;;4888697;29;20025;-94
2023/03/22 08:27:30;;;;;;;17.05;15.02;;;;;;;;;;4884864;29;20048;-93
2023/03/22 08:29:57;;;;;;;19.92;15.73;;;;;;;;;;4884375;29;20055;-94
2023/03/22 08:33:34;;;;;;;17.77;15.65;;;;;;;;;;4887697;29;20029;-96
2023/03/22 08:35:41;;;;;;;20.80;15.40;;;;;;;;;;4883808;29;20128;-92
2023/03/22 08:38:08;;;;;;;20.00;17.10;;;;;;;;;;4886709;29;20041;-92
2023/03/22 08:40:34;;;;;;;16.65;14.85;;;;;;;;;;4884505;29;20060;-90
2023/03/22 08:43:00;;;;;;;19.70;15.40;;;;;;;;;;4884292;29;20104;-94
2023/03/22 08:45:27;;;;;;;19.17;16.30;;;;;;;;;;4884971;29;20071;-94
2023/03/22 08:47:54;;;;;;;17.45;15.07;;;;;;;;;;4884282;29;20120;-92
2023/03/22 08:50:22;;;;;;;20.63;15.15;;;;;;;;;;4884089;29;20025;-94
2023/03/22 08:52:48;;;;;;;20.63;14.05;;;;;;;;;;4883941;29;20055;-93
2023/03/22 08:55:16;;;;;;;18.08;13.68;;;;;;;;;;4877866;29;20679;-96
2023/03/22 08:57:57;;;;;;;14.50;12.10;;;;;;;;;;4871054;29;20064;-96
2023/03/22 09:00:30;;;;;;;18.08;13.25;;;;;;;;;;5268053;23;21391;-93
2023/03/22 09:02:57;;;;;;;17.38;11.85;;;;;;;;;;4876503;29;20049;-92
2023/03/22 09:05:23;;;;;;;12.88;10.55;;;;;;;;;;4870538;29;20025;-94
2023/03/22 09:07:52;;;;;;;18.42;12.35;;;;;;;;;;4867528;29;20028;-94
2023/03/22 09:10:18;;;;;;;14.45;11.05;;;;;;;;;;4865652;29;20036;-94
2023/03/22 09:12:45;;;;;;;21.23;11.93;;;;;;;;;;4865137;29;20072;-94
2023/03/22 09:15:11;;;;;;;16.98;12.18;;;;;;;;;;4865007;29;20112;-93
2023/03/22 09:17:37;;;;;;;15.38;12.30;;;;;;;;;;4864761;29;20080;-94
2023/03/22 09:20:03;;;;;;;14.38;12.05;;;;;;;;;;4865195;29;20029;-93
2023/03/22 09:22:29;;;;;;;13.60;12.02;;;;;;;;;;4865009;29;20380;-94
2023/03/22 09:24:55;;;;;;;22.90;12.27;;;;;;;;;;4864952;29;20033;-93
2023/03/22 09:27:22;;;;;;;15.05;12.18;;;;;;;;;;4865091;29;20516;-93
2023/03/22 09:29:49;;;;;;;15.60;12.55;;;;;;;;;;4863951;29;20021;-94
2023/03/22 09:32:15;;;;;;;17.95;13.02;;;;;;;;;;4876313;29;20029;-92
2023/03/22 09:34:42;;;;;;;15.25;12.82;;;;;;;;;;4884637;29;20075;-94
2023/03/22 09:37:08;;;;;;;16.55;12.57;;;;;;;;;;4869380;29;20064;-94
2023/03/22 09:39:37;;;;;;;15.50;13.60;;;;;;;;;;4866537;29;20479;-95
2023/03/22 09:42:05;;;;;;;16.83;14.27;;;;;;;;;;4870330;29;20033;-94
2023/03/22 09:44:35;;;;;;;15.02;13.10;;;;;;;;;;4865189;29;20033;-95
2023/03/22 09:47:04;;;;;;;29.25;22.85;;;;;;;;;;4869199;29;20025;-94
2023/03/22 09:49:34;;;;;;;15.27;12.82;;;;;;;;;;4866814;29;20025;-95
2023/03/22 09:52:01;;;;;;;23.23;17.58;;;;;;;;;;4866533;29;20119;-93
2023/03/22 09:54:38;;;;;;;15.93;13.10;;;;;;;;;;4867177;29;20164;-93
2023/03/22 09:57:23;;;;;;;19.30;15.50;;;;;;;;;;4883725;29;20033;-92
2023/03/22 10:00:15;;;;;;;15.02;12.80;;;;;;;;;;4865567;29;20033;-95
2023/03/22 10:02:47;;;;;;;16.63;12.70;;;;;;;;;;4879874;29;20135;-93
2023/03/22 10:05:26;;;;;;;18.23;13.50;;;;;;;;;;4881248;29;20108;-92
2023/03/22 10:08:09;;;;;;;18.73;12.63;;;;;;;;;;4880647;29;20037;-92
2023/03/22 10:10:36;;;;;;;19.10;13.60;;;;;;;;;;4881156;29;20119;-92
2023/03/22 10:13:04;;;;;;;16.27;13.85;;;;;;;;;;4882145;29;20033;-92
2023/03/22 10:15:37;;;;;;;17.33;13.25;;;;;;;;;;4882408;29;20032;-92
2023/03/22 10:18:06;;;;;;;20.70;13.68;;;;;;;;;;4881419;29;20021;-93
2023/03/22 10:20:42;;;;;;;22.00;13.57;;;;;;;;;;4881447;29;20119;-91
2023/03/22 10:23:32;;;;;;;15.77;12.82;;;;;;;;;;4864444;29;20044;-92
2023/03/22 10:26:00;;;;;;;25.05;16.00;;;;;;;;;;4854439;29;20044;-93
2023/03/22 10:36:52;;;;;;;18.83;14.30;;;;;;;;;;5647826;23;20099;-94
2023/03/22 10:39:33;;;;;;;17.58;12.55;;;;;;;;;;4861523;29;20096;-93
2023/03/22 10:42:01;;;;;;;19.15;13.25;;;;;;;;;;4862198;29;20041;-93
2023/03/22 10:44:29;;;;;;;20.13;13.15;;;;;;;;;;4867047;29;20088;-92
2023/03/22 10:46:56;;;;;;;18.17;13.52;;;;;;;;;;4869413;29;20029;-92
2023/03/22 10:49:28;;;;;;;14.80;12.38;;;;;;;;;;4861800;29;20482;-94
2023/03/22 10:52:01;;;;;;;18.50;13.68;;;;;;;;;;4862974;29;20072;-93
2023/03/22 10:54:28;;;;;;;16.92;13.40;;;;;;;;;;4863569;29;20475;-95
2023/03/22 10:56:54;;;;;;;20.25;14.80;;;;;;;;;;4862350;29;20064;-93
2023/03/22 10:59:39;;;;;;;15.43;11.70;;;;;;;;;;4861513;29;20033;-91
2023/03/22 11:02:05;;;;;;;18.25;15.77;;;;;;;;;;4861297;29;20037;-92
2023/03/22 11:04:32;;;;;;;22.35;12.38;;;;;;;;;;4861528;29;20116;-91
2023/03/22 11:06:58;;;;;;;17.98;12.70;;;;;;;;;;4861489;29;20074;-92
2023/03/22 11:09:24;;;;;;;18.38;13.45;;;;;;;;;;4861561;29;20124;-96
2023/03/22 11:11:54;;;;;;;14.82;11.38;;;;;;;;;;4861482;29;20025;-95
2023/03/22 11:14:23;;;;;;;13.43;11.50;;;;;;;;;;4863100;29;20110;-96
2023/03/22 11:16:56;;;;;;;12.38;10.52;;;;;;;;;;4863398;29;20033;-92
2023/03/22 11:19:27;;;;;;;14.23;11.80;;;;;;;;;;4861213;29;20029;-92
2023/03/22 11:21:57;;;;;;;14.73;11.60;;;;;;;;;;4860906;29;20045;-91
2023/03/22 11:24:25;;;;;;;13.80;11.50;;;;;;;;;;4861262;29;20033;-92
2023/03/22 11:27:03;;;;;;;15.10;10.57;;;;;;;;;;4861321;29;20036;-93
2023/03/22 11:29:38;;;;;;;15.23;11.70;;;;;;;;;;4861351;29;20033;-93
2023/03/22 11:32:18;;;;;;;12.90;11.10;;;;;;;;;;4860698;29;20033;-91
2023/03/22 11:34:45;;;;;;;14.77;12.50;;;;;;;;;;4862811;29;20041;-93
2023/03/22 11:37:16;;;;;;;13.32;10.68;;;;;;;;;;4864472;29;20063;-93
2023/03/22 11:39:48;;;;;;;13.07;10.20;;;;;;;;;;4864486;29;20033;-93
2023/03/22 11:42:18;;;;;;;13.00;10.20;;;;;;;;;;4864570;29;20048;-93
2023/03/22 11:45:12;;;;;;;13.55;11.77;;;;;;;;;;4867125;29;20029;-95
2023/03/22 11:47:38;;;;;;;14.13;10.48;;;;;;;;;;4865307;29;20128;-95
2023/03/22 11:50:06;;;;;;;12.75;11.27;;;;;;;;;;4864556;29;20025;-95
2023/03/22 11:55:36;;;;;;;13.30;10.68;;;;;;;;;;4899768;29;20039;-95
2023/03/22 11:58:03;;;;;;;12.07;9.77;;;;;;;;;;4866647;29;20432;-95
2023/03/22 12:00:36;;;;;;;13.88;10.77;;;;;;;;;;4864195;29;20036;-94
2023/03/22 12:03:05;;;;;;;15.02;11.10;;;;;;;;;;4864516;29;20037;-95
2023/03/22 12:05:32;;;;;;;10.27;9.18;;;;;;;;;;4864587;29;20029;-95
2023/03/22 12:08:11;;;;;;;12.63;10.18;;;;;;;;;;4864399;29;20475;-95
2023/03/22 12:10:47;;;;;;;14.02;10.27;;;;;;;;;;4864551;29;20112;-95
2023/03/22 12:13:23;;;;;;;11.50;9.75;;;;;;;;;;4864230;29;20041;-94
2023/03/22 12:15:52;;;;;;;14.38;10.70;;;;;;;;;;4865403;29;20036;-94
2023/03/22 12:18:38;;;;;;;10.57;9.48;;;;;;;;;;4864206;29;20033;-94
2023/03/22 12:21:04;;;;;;;10.80;9.65;;;;;;;;;;4864137;29;20427;-92
2023/03/22 12:23:33;;;;;;;12.15;9.75;;;;;;;;;;4864256;29;20072;-95
2023/03/22 12:26:20;;;;;;;12.70;8.82;;;;;;;;;;4866867;29;20116;-93
2023/03/22 12:32:11;;;;;;;12.75;9.18;;;;;;;;;;4933869;23;20056;-93
2023/03/22 12:34:40;;;;;;;13.48;9.30;;;;;;;;;;4886353;29;20044;-96
2023/03/22 12:37:08;;;;;;;12.20;9.57;;;;;;;;;;4886652;29;20021;-95
2023/03/22 12:39:45;;;;;;;12.73;9.88;;;;;;;;;;4885046;29;20032;-95
2023/03/22 12:42:23;;;;;;;12.23;10.13;;;;;;;;;;4884057;29;20439;-95
2023/03/22 12:44:51;;;;;;;12.02;10.07;;;;;;;;;;4883816;29;20111;-94
2023/03/22 12:47:23;;;;;;;12.25;9.85;;;;;;;;;;4884139;29;20039;-95
2023/03/22 12:49:50;;;;;;;11.20;9.17;;;;;;;;;;4884494;29;20021;-94
2023/03/22 12:52:19;;;;;;;13.60;9.10;;;;;;;;;;4883998;29;20081;-94
2023/03/22 12:54:47;;;;;;;11.80;8.43;;;;;;;;;;4883798;29;20046;-94
2023/03/22 12:57:15;;;;;;;9.52;8.38;;;;;;;;;;4883525;29;20040;-96
2023/03/22 12:59:42;;;;;;;12.55;9.27;;;;;;;;;;4884214;29;20029;-95
2023/03/22 13:02:14;;;;;;;13.23;9.63;;;;;;;;;;4883644;29;20123;-94
2023/03/22 13:04:44;;;;;;;11.95;9.75;;;;;;;;;;4883825;29;20115;-93
2023/03/22 13:07:13;;;;;;;11.95;9.75;;;;;;;;;;4883481;29;20549;-94
2023/03/22 13:09:41;;;;;;;11.27;9.30;;;;;;;;;;4883304;29;20032;-91
2023/03/22 13:21:22;;;;;;;10.00;8.02;;;;;;;;;;4932198;23;20071;-92
2023/03/22 13:23:59;;;;;;;10.27;8.77;;;;;;;;;;4883311;29;20056;-96
2023/03/22 13:26:44;;;;;;;9.27;8.27;;;;;;;;;;4883676;29;20115;-96
2023/03/22 13:29:18;;;;;;;10.15;8.05;;;;;;;;;;4883436;29;20130;-95
2023/03/22 13:31:50;;;;;;;9.48;8.48;;;;;;;;;;4883201;29;20056;-94
2023/03/22 13:34:19;;;;;;;11.63;9.25;;;;;;;;;;4883568;29;20501;-93
2023/03/22 13:36:49;;;;;;;10.18;7.47;;;;;;;;;;4883320;29;20031;-95
2023/03/22 13:39:16;;;;;;;8.88;7.97;;;;;;;;;;4883233;29;20024;-94
2023/03/22 13:41:45;;;;;;;11.10;7.68;;;;;;;;;;4883435;29;20038;-93
2023/03/22 13:44:47;;;;;;;10.30;7.57;;;;;;;;;;4883579;29;20040;-95
2023/03/22 13:47:39;;;;;;;8.63;7.72;;;;;;;;;;4823817;29;20054;-94
2023/03/22 13:50:12;;;;;;;11.15;7.75;;;;;;;;;;4893795;29;20541;-95
2023/03/22 13:52:43;;;;;;;10.32;8.00;;;;;;;;;;4891824;29;20027;-95
2023/03/22 13:55:35;;;;;;;10.65;7.03;;;;;;;;;;4899327;29;20052;-96
2023/03/22 13:58:03;;;;;;;9.85;6.65;;;;;;;;;;4852730;29;20049;-95
2023/03/22 14:00:33;;;;;;;9.65;7.47;;;;;;;;;;4883044;29;20039;-94
2023/03/22 14:03:23;;;;;;;10.13;7.30;;;;;;;;;;4882995;29;20036;-94
2023/03/22 14:05:54;;;;;;;11.70;8.00;;;;;;;;;;4872743;29;20040;-95
2023/03/22 14:08:22;;;;;;;10.35;7.15;;;;;;;;;;4887153;29;20096;-92
2023/03/22 14:10:52;;;;;;;10.05;7.57;;;;;;;;;;4888510;29;20487;-95
2023/03/22 14:13:51;;;;;;;10.75;7.22;;;;;;;;;;4883351;29;20071;-94
2023/03/22 14:16:37;;;;;;;8.20;6.97;;;;;;;;;;4833037;29;20041;-93
2023/03/22 14:19:05;;;;;;;8.63;6.50;;;;;;;;;;4882324;29;20084;-93
2023/03/22 14:21:34;;;;;;;11.57;6.68;;;;;;;;;;4882803;29;20438;-94
2023/03/22 14:24:00;;;;;;;9.35;6.38;;;;;;;;;;4882486;29;20040;-95
2023/03/22 14:26:31;;;;;;;9.90;6.03;;;;;;;;;;4882652;29;20076;-94
2023/03/22 14:29:06;;;;;;;8.00;5.90;;;;;;;;;;4882606;29;20037;-93
2023/03/22 14:31:32;;;;;;;7.25;5.72;;;;;;;;;;4882492;29;20391;-94
2023/03/22 14:34:06;;;;;;;8.30;5.93;;;;;;;;;;4880837;29;20522;-94
2023/03/22 14:36:41;;;;;;;8.60;5.53;;;;;;;;;;4883181;29;20056;-95
2023/03/22 14:39:14;;;;;;;8.73;5.20;;;;;;;;;;4884691;29;20025;-95
2023/03/22 14:41:59;;;;;;;7.05;4.85;;;;;;;;;;4886564;29;20482;-95
2023/03/22 14:44:26;;;;;;;6.03;4.82;;;;;;;;;;4884270;29;20130;-95
2023/03/22 14:47:13;;;;;;;15.10;5.03;;;;;;;;;;4885444;29;20100;-96
2023/03/22 14:49:43;;;;;;;8.30;5.20;;;;;;;;;;4868447;29;20124;-95
2023/03/22 14:52:15;;;;;;;6.93;4.85;;;;;;;;;;4882740;29;20032;-94
2023/03/22 14:54:57;;;;;;;10.00;4.57;;;;;;;;;;4883224;29;20060;-96
2023/03/22 14:57:37;;;;;;;9.93;4.90;;;;;;;;;;4890987;29;20025;-95
2023/03/22 15:00:18;;;;;;;7.20;4.18;;;;;;;;;;4895158;29;20033;-93
2023/03/22 15:02:47;;;;;;;8.48;4.47;;;;;;;;;;4883013;29;20123;-91
2023/03/22 15:05:16;;;;;;;7.82;4.35;;;;;;;;;;4882245;29;20115;-91
2023/03/22 15:08:54;;;;;;;7.25;3.70;;;;;;;;;;4891711;29;20013;-95
2023/03/22 15:11:16;;;;;;;8.60;3.85;;;;;;;;;;4805013;30;20036;-96
2023/03/22 15:13:44;;;;;;;4.97;3.17;;;;;;;;;;4780004;30;20039;-94
2023/03/22 15:16:11;;;;;;;4.85;3.05;;;;;;;;;;4861642;29;20045;-93
2023/03/22 15:18:42;;;;;;;5.72;3.20;;;;;;;;;;4892598;29;20039;-96
2023/03/22 15:21:12;;;;;;;7.90;3.20;;;;;;;;;;4894352;29;20053;-96
2023/03/22 15:23:40;;;;;;;7.13;3.15;;;;;;;;;;4872219;29;20127;-95
2023/03/22 15:26:15;;;;;;;7.35;3.90;;;;;;;;;;4867867;29;20028;-95
2023/03/22 15:29:04;;;;;;;6.25;3.30;;;;;;;;;;4868564;29;20033;-95
2023/03/22 15:31:56;;;;;;;6.80;3.00;;;;;;;;;;4876494;29;20025;-96
2023/03/22 15:34:23;;;;;;;6.70;2.90;;;;;;;;;;4872502;29;20431;-94
2023/03/22 15:36:52;;;;;;;7.25;2.92;;;;;;;;;;4867792;29;20551;-96
2023/03/22 15:39:26;;;;;;;6.18;3.05;;;;;;;;;;4869032;29;20025;-93